Time;durP1;ratioP1;P1;durP2;ratioP2;P2;SDS_P1;SDS_P2;PMS_P1;PMS_P2;Temp;Humidity;BMP_temperature;BMP_pressure;BME280_temperature;BME280_humidity;BME280_pressure;Samples;Min_cycle;Max_cycle;Signal;HPM_P1;HPM_P2
2023/07/22 00:02:20;;;;;;;1.90;1.80;;;;;;;17.56;100.00;96328.91;5053470;27;104243;-65
2023/07/22 00:04:47;;;;;;;2.37;2.17;;;;;;;17.60;100.00;96331.81;5072302;27;101847;-65
2023/07/22 00:07:14;;;;;;;2.23;2.03;;;;;;;17.62;100.00;96335.81;5072135;27;102915;-65
2023/07/22 00:09:43;;;;;;;3.93;2.50;;;;;;;17.60;100.00;96323.75;5071629;27;102789;-65
2023/07/22 00:12:12;;;;;;;2.10;1.90;;;;;;;17.58;100.00;96328.63;5056414;27;102414;-65
2023/07/22 00:14:42;;;;;;;2.50;2.30;;;;;;;17.43;100.00;96326.22;5053143;27;105810;-64
2023/07/22 00:17:09;;;;;;;2.30;2.10;;;;;;;17.30;100.00;96332.28;5072208;27;102130;-64
2023/07/22 00:19:36;;;;;;;2.27;1.93;;;;;;;17.30;100.00;96332.28;5053934;27;105476;-64
2023/07/22 00:22:03;;;;;;;4.17;2.50;;;;;;;17.36;100.00;96331.09;5071618;27;102725;-64
2023/07/22 00:24:30;;;;;;;2.40;2.20;;;;;;;17.31;100.00;96329.31;5053507;27;101903;-65
2023/07/22 00:26:57;;;;;;;2.27;2.10;;;;;;;17.30;100.00;96326.91;5072286;27;102413;-64
2023/07/22 00:29:25;;;;;;;2.63;2.00;;;;;;;17.36;100.00;96323.84;5052944;27;105316;-64
2023/07/22 00:31:53;;;;;;;2.50;2.00;;;;;;;17.30;100.00;96327.72;5053253;27;101942;-64
2023/07/22 00:34:20;;;;;;;2.47;2.27;;;;;;;17.24;100.00;96318.16;5056376;27;105445;-64
2023/07/22 00:36:47;;;;;;;2.80;1.90;;;;;;;17.20;100.00;96321.69;5053385;27;101731;-64
2023/07/22 00:39:14;;;;;;;3.13;1.93;;;;;;;17.20;100.00;96322.50;5053123;27;105219;-64
2023/07/22 00:41:43;;;;;;;2.47;2.23;;;;;;;17.21;100.00;96329.47;5052933;27;105274;-65
2023/07/22 00:44:12;;;;;;;2.17;1.90;;;;;;;17.17;100.00;96322.31;5053430;27;101856;-64
2023/07/22 00:46:40;;;;;;;2.60;2.40;;;;;;;17.15;100.00;96316.41;5053391;27;105325;-64
2023/07/22 00:49:09;;;;;;;2.80;2.37;;;;;;;17.29;100.00;96319.94;5071081;27;103102;-64
2023/07/22 00:51:35;;;;;;;2.20;2.00;;;;;;;17.32;100.00;96322.84;5071673;27;102069;-64
2023/07/22 00:54:03;;;;;;;2.00;1.90;;;;;;;17.41;100.00;96328.38;5071404;27;102885;-64
2023/07/22 00:56:34;;;;;;;2.47;1.90;;;;;;;17.40;100.00;96316.03;5055995;27;105914;-64
2023/07/22 00:59:01;;;;;;;2.20;2.00;;;;;;;17.38;100.00;96310.94;5053296;27;105157;-64
2023/07/22 01:01:28;;;;;;;2.90;2.10;;;;;;;17.34;100.00;96314.50;5052495;27;105304;-64
2023/07/22 01:03:57;;;;;;;1.97;1.87;;;;;;;17.29;100.00;96315.38;5052924;27;101932;-65
2023/07/22 01:06:28;;;;;;;2.67;2.10;;;;;;;17.30;100.00;96316.16;5049291;27;105650;-64
2023/07/22 01:08:56;;;;;;;2.33;2.17;;;;;;;17.15;100.00;96324.47;5048844;27;105809;-64
2023/07/22 01:11:22;;;;;;;2.13;1.80;;;;;;;17.23;100.00;96318.44;5049564;27;101862;-64
2023/07/22 01:13:51;;;;;;;2.77;1.97;;;;;;;17.19;100.00;96325.47;5049519;27;105526;-65
2023/07/22 01:16:18;;;;;;;2.30;2.00;;;;;;;17.22;100.00;96323.00;5048726;27;105797;-65
2023/07/22 01:18:46;;;;;;;2.20;2.00;;;;;;;17.24;100.00;96330.78;5053102;27;101980;-65
2023/07/22 01:21:16;;;;;;;2.07;1.97;;;;;;;17.13;100.00;96319.41;5050137;27;102676;-65
2023/07/22 01:23:44;;;;;;;2.20;2.00;;;;;;;17.12;100.00;96314.31;5049270;27;102058;-65
2023/07/22 01:26:11;;;;;;;1.90;1.80;;;;;;;17.04;100.00;96309.59;5049459;27;105124;-65
2023/07/22 01:28:38;;;;;;;3.73;2.07;;;;;;;16.93;100.00;96302.78;5048614;27;105642;-65
2023/07/22 01:31:05;;;;;;;2.27;1.77;;;;;;;16.87;100.00;96304.75;5049292;27;101895;-65
2023/07/22 01:33:32;;;;;;;2.07;1.90;;;;;;;16.85;100.00;96304.22;5049075;27;105236;-65
2023/07/22 01:35:59;;;;;;;2.87;1.77;;;;;;;16.87;100.00;96312.00;5048516;27;105411;-65
2023/07/22 01:38:26;;;;;;;3.23;2.00;;;;;;;16.76;100.00;96315.94;5048815;27;101891;-65
2023/07/22 01:40:55;;;;;;;2.70;2.20;;;;;;;16.62;100.00;96307.00;5051876;27;105321;-64
2023/07/22 01:43:22;;;;;;;2.50;2.17;;;;;;;16.76;100.00;96311.38;5049099;27;102308;-64
2023/07/22 01:45:49;;;;;;;2.20;2.10;;;;;;;16.70;100.00;96312.53;5050527;27;102354;-64
2023/07/22 01:48:16;;;;;;;2.20;1.90;;;;;;;16.74;100.00;96310.06;5048305;27;105570;-64
2023/07/22 01:50:43;;;;;;;4.23;2.43;;;;;;;16.88;100.00;96308.22;5050411;27;101851;-64
2023/07/22 01:53:10;;;;;;;2.03;1.83;;;;;;;16.77;100.00;96312.16;5048617;27;105718;-64
2023/07/22 01:55:37;;;;;;;2.60;2.30;;;;;;;16.88;100.00;96313.59;5048231;27;106159;-64
2023/07/22 01:58:05;;;;;;;2.53;2.13;;;;;;;16.92;100.00;96322.69;5048836;27;101874;-64
2023/07/22 02:00:32;;;;;;;3.63;1.90;;;;;;;16.92;100.00;96320.81;5051677;27;105094;-64
2023/07/22 02:02:59;;;;;;;2.77;2.07;;;;;;;16.88;100.00;96310.91;5048715;27;101899;-64
2023/07/22 02:05:27;;;;;;;2.93;1.93;;;;;;;16.94;100.00;96323.97;5052838;27;102603;-64
2023/07/22 02:07:55;;;;;;;2.63;2.10;;;;;;;16.99;100.00;96323.91;5070216;27;102975;-64
2023/07/22 02:10:22;;;;;;;2.20;2.00;;;;;;;16.96;100.00;96329.06;5051911;27;102225;-65
2023/07/22 02:12:50;;;;;;;2.23;2.10;;;;;;;17.00;100.00;96328.19;5071075;27;101739;-64
2023/07/22 02:15:21;;;;;;;2.20;2.00;;;;;;;16.91;100.00;96321.91;5069783;27;102534;-64
2023/07/22 02:17:49;;;;;;;2.17;2.07;;;;;;;17.02;100.00;96327.91;5051994;27;101899;-64
2023/07/22 02:20:17;;;;;;;3.30;2.47;;;;;;;16.96;100.00;96326.38;5051713;27;105066;-64
2023/07/22 02:22:44;;;;;;;3.40;2.30;;;;;;;16.81;100.00;96326.59;5054750;27;105425;-65
2023/07/22 02:25:11;;;;;;;2.20;2.07;;;;;;;16.88;100.00;96333.22;5051805;27;105566;-65
2023/07/22 02:27:38;;;;;;;2.10;1.93;;;;;;;16.72;100.00;96325.66;5051204;27;105337;-65
2023/07/22 02:30:10;;;;;;;2.80;1.93;;;;;;;16.57;100.00;96336.63;5070281;27;101882;-64
2023/07/22 02:32:38;;;;;;;5.00;2.33;;;;;;;16.61;100.00;96340.28;5070236;27;102902;-65
2023/07/22 02:35:06;;;;;;;2.20;2.00;;;;;;;16.56;100.00;96337.72;5052859;27;105417;-65
2023/07/22 02:37:34;;;;;;;3.23;2.40;;;;;;;16.62;100.00;96347.28;5055266;27;101990;-64
2023/07/22 02:40:01;;;;;;;2.90;1.90;;;;;;;16.69;100.00;96348.53;5055033;27;105474;-65
2023/07/22 02:42:28;;;;;;;5.97;2.27;;;;;;;16.66;100.00;96349.09;5054567;27;105386;-65
2023/07/22 02:44:57;;;;;;;5.10;2.40;;;;;;;16.77;100.00;96347.88;5077323;27;101888;-65
2023/07/22 02:47:24;;;;;;;2.63;2.40;;;;;;;16.86;100.00;96343.47;5054732;27;106001;-64
2023/07/22 02:49:52;;;;;;;3.00;2.43;;;;;;;16.69;100.00;96337.78;5055008;27;101927;-65
2023/07/22 02:52:19;;;;;;;3.17;2.10;;;;;;;16.61;100.00;96337.63;5073546;27;102891;-64
2023/07/22 02:55:05;;;;;;;4.23;2.10;;;;;;;16.73;100.00;96351.44;5054383;27;105791;-64
2023/07/22 02:57:33;;;;;;;2.60;2.40;;;;;;;16.75;100.00;96347.38;5055155;27;101862;-65
2023/07/22 02:59:59;;;;;;;3.33;2.27;;;;;;;16.85;100.00;96346.44;5055021;27;104278;-65
2023/07/22 03:02:26;;;;;;;3.20;2.23;;;;;;;16.80;100.00;96344.63;5054241;27;104289;-65
2023/07/22 03:04:55;;;;;;;3.90;2.20;;;;;;;16.92;100.00;96349.53;5054855;27;101961;-65
2023/07/22 03:07:23;;;;;;;2.40;2.23;;;;;;;16.92;100.00;96353.03;5076013;27;102350;-65
2023/07/22 03:09:50;;;;;;;3.20;2.77;;;;;;;16.46;100.00;96356.63;5054919;27;101867;-65
2023/07/22 03:12:16;;;;;;;3.30;3.00;;;;;;;16.33;100.00;96359.97;5054826;27;105415;-65
2023/07/22 03:14:43;;;;;;;3.43;2.60;;;;;;;16.36;100.00;96368.22;5054014;27;105465;-65
2023/07/22 03:17:10;;;;;;;4.47;2.50;;;;;;;16.49;100.00;96361.41;5054778;27;102215;-65
2023/07/22 03:19:37;;;;;;;4.33;3.20;;;;;;;16.60;100.00;96355.63;5054588;27;105486;-65
2023/07/22 03:22:05;;;;;;;3.53;2.60;;;;;;;16.65;100.00;96357.44;5053973;27;105349;-65
2023/07/22 03:24:33;;;;;;;3.93;3.07;;;;;;;16.73;100.00;96356.81;5073161;27;102288;-65
2023/07/22 03:26:59;;;;;;;6.60;2.97;;;;;;;16.74;100.00;96358.41;5054702;27;105491;-65
2023/07/22 03:29:26;;;;;;;2.77;2.57;;;;;;;16.92;100.00;96369.16;5057484;27;105542;-66
2023/07/22 03:31:53;;;;;;;2.73;2.53;;;;;;;16.90;100.00;96360.56;5054406;27;105843;-66
2023/07/22 03:34:20;;;;;;;3.20;2.90;;;;;;;16.89;100.00;96364.34;5053667;27;105430;-65
2023/07/22 03:36:47;;;;;;;4.43;2.40;;;;;;;17.01;100.00;96372.75;5054503;27;102061;-65
2023/07/22 03:39:16;;;;;;;3.37;2.50;;;;;;;17.03;100.00;96370.59;5054089;27;105824;-65
2023/07/22 03:41:44;;;;;;;3.97;3.30;;;;;;;16.92;100.00;96361.09;5053724;27;105766;-65
2023/07/22 03:44:11;;;;;;;3.60;2.80;;;;;;;16.90;100.00;96351.72;5054298;27;102275;-65
2023/07/22 03:46:38;;;;;;;3.77;2.83;;;;;;;16.97;100.00;96361.03;5071490;27;102609;-65
2023/07/22 03:49:05;;;;;;;3.40;2.47;;;;;;;17.02;100.00;96363.63;5071897;27;102560;-65
2023/07/22 03:51:32;;;;;;;4.40;2.40;;;;;;;17.16;100.00;96358.31;5057456;27;101981;-65
2023/07/22 03:53:58;;;;;;;2.97;2.60;;;;;;;17.14;100.00;96361.31;5053405;27;105742;-65
2023/07/22 03:56:27;;;;;;;3.90;2.90;;;;;;;17.20;100.00;96380.81;5072586;27;102358;-65
2023/07/22 03:58:54;;;;;;;2.70;2.50;;;;;;;17.05;100.00;96381.06;5054177;27;104476;-65
2023/07/22 04:01:21;;;;;;;4.67;3.23;;;;;;;16.60;100.00;96387.03;5053347;27;105749;-64
2023/07/22 04:03:48;;;;;;;4.83;2.87;;;;;;;16.60;100.00;96387.84;5053994;27;101900;-65
2023/07/22 04:06:15;;;;;;;4.53;3.27;;;;;;;16.47;100.00;96388.53;5053525;27;105183;-65
2023/07/22 04:08:42;;;;;;;3.33;3.10;;;;;;;16.57;100.00;96388.41;5071928;27;102695;-65
2023/07/22 04:11:09;;;;;;;3.47;3.17;;;;;;;16.57;100.00;96384.94;5057555;27;101943;-65
2023/07/22 04:13:37;;;;;;;3.10;2.80;;;;;;;16.83;100.00;96380.81;5053025;27;105664;-65
2023/07/22 04:16:05;;;;;;;5.13;3.13;;;;;;;17.12;100.00;96384.19;5072018;27;101957;-65
2023/07/22 04:18:34;;;;;;;4.03;3.10;;;;;;;17.37;100.00;96386.47;5053774;27;105482;-65
2023/07/22 04:21:02;;;;;;;3.67;3.00;;;;;;;17.21;100.00;96385.91;5052988;27;105346;-65
2023/07/22 04:23:29;;;;;;;3.07;2.60;;;;;;;17.42;100.00;96387.22;5053761;27;101847;-65
2023/07/22 04:25:56;;;;;;;5.70;3.00;;;;;;;17.50;100.00;96391.94;5072195;27;102579;-65
2023/07/22 04:28:25;;;;;;;3.20;2.80;;;;;;;17.69;100.00;96395.38;5053089;27;105993;-65
2023/07/22 04:31:00;;;;;;;3.27;2.97;;;;;;;17.80;100.00;96394.13;5053441;27;102004;-65
2023/07/22 04:33:28;;;;;;;3.80;3.30;;;;;;;17.74;100.00;96386.44;5056371;27;102574;-65
2023/07/22 04:35:57;;;;;;;3.83;3.00;;;;;;;17.66;100.00;96387.13;5036682;27;102148;-65
2023/07/22 04:38:24;;;;;;;4.73;3.00;;;;;;;17.79;100.00;96392.53;5053362;27;105269;-65
2023/07/22 04:40:51;;;;;;;3.20;2.90;;;;;;;17.72;100.00;96388.63;5052586;27;103918;-65
2023/07/22 04:43:17;;;;;;;3.43;3.03;;;;;;;17.76;100.00;96384.25;5071880;27;101835;-65
2023/07/22 04:45:47;;;;;;;2.87;2.57;;;;;;;17.75;100.00;96382.63;5053357;27;104495;-65
2023/07/22 04:48:17;;;;;;;4.67;2.90;;;;;;;17.65;100.00;96382.84;5052744;27;105728;-65
2023/07/22 04:50:45;;;;;;;3.53;2.70;;;;;;;17.80;100.00;96383.38;5053280;27;102266;-64
2023/07/22 04:53:14;;;;;;;3.67;3.27;;;;;;;17.92;100.00;96378.28;5071666;27;102362;-65
2023/07/22 04:55:40;;;;;;;3.07;2.40;;;;;;;18.21;100.00;96383.44;5055828;27;105578;-65
2023/07/22 04:58:08;;;;;;;5.57;3.40;;;;;;;17.91;100.00;96384.78;5052788;27;105545;-65
2023/07/22 05:00:35;;;;;;;5.03;3.57;;;;;;;17.56;100.00;96381.91;5070830;27;102623;-65
2023/07/22 05:03:02;;;;;;;5.37;3.20;;;;;;;17.67;100.00;96381.44;5053004;27;101924;-65
2023/07/22 05:05:30;;;;;;;5.27;3.23;;;;;;;17.78;100.00;96388.25;5063937;27;104228;-65
2023/07/22 05:07:57;;;;;;;3.07;2.80;;;;;;;17.93;100.00;96379.09;5028665;28;105281;-65
2023/07/22 05:10:24;;;;;;;5.10;3.00;;;;;;;18.08;100.00;96382.31;5030699;28;102073;-65
2023/07/22 05:12:51;;;;;;;5.00;2.67;;;;;;;18.27;100.00;96374.16;5029343;28;105575;-65
2023/07/22 05:15:18;;;;;;;3.60;3.07;;;;;;;18.38;100.00;96371.00;5028388;28;105984;-65
2023/07/22 05:17:45;;;;;;;6.93;2.90;;;;;;;18.53;100.00;96367.19;5032734;28;101949;-65
2023/07/22 05:20:12;;;;;;;7.83;3.13;;;;;;;18.66;100.00;96367.19;5028536;28;104324;-64
2023/07/22 05:22:42;;;;;;;5.37;3.23;;;;;;;18.85;100.00;96358.97;5030467;27;101950;-64
2023/07/22 05:25:10;;;;;;;3.53;3.20;;;;;;;18.73;100.00;96361.38;5029042;28;106356;-65
2023/07/22 05:27:37;;;;;;;8.17;3.13;;;;;;;18.96;100.00;96363.03;5028480;28;104270;-65
2023/07/22 05:30:05;;;;;;;5.57;3.23;;;;;;;18.81;100.00;96360.69;5030255;27;102080;-64
2023/07/22 05:32:32;;;;;;;5.90;3.17;;;;;;;18.04;100.00;96369.75;5030353;27;102434;-64
2023/07/22 05:34:59;;;;;;;3.37;2.87;;;;;;;18.38;100.00;96380.97;5029709;28;102662;-64
2023/07/22 05:37:26;;;;;;;5.20;3.40;;;;;;;18.21;100.00;96386.13;5028963;28;101897;-64
2023/07/22 05:39:54;;;;;;;3.83;3.33;;;;;;;17.93;100.00;96384.50;5031483;28;105615;-65
2023/07/22 05:42:21;;;;;;;3.60;3.10;;;;;;;18.16;100.00;96397.75;5030053;27;101876;-65
2023/07/22 05:44:49;;;;;;;3.57;3.13;;;;;;;18.31;100.00;96396.69;5028720;28;105360;-65
2023/07/22 05:47:16;;;;;;;3.53;2.90;;;;;;;18.58;100.00;96391.34;5029568;28;102933;-65
2023/07/22 05:49:43;;;;;;;4.80;3.10;;;;;;;19.09;100.00;96387.28;5030121;28;102082;-64
2023/07/22 05:52:09;;;;;;;3.00;2.80;;;;;;;19.25;100.00;96385.84;5030072;28;102416;-64
2023/07/22 05:54:36;;;;;;;3.20;2.73;;;;;;;19.27;100.00;96380.13;5029388;28;102598;-65
2023/07/22 05:57:05;;;;;;;3.93;2.70;;;;;;;19.35;100.00;96384.81;5028739;28;102036;-65
2023/07/22 05:59:32;;;;;;;2.70;2.50;;;;;;;19.40;100.00;96382.00;5029885;28;102442;-64
2023/07/22 06:01:59;;;;;;;2.77;2.57;;;;;;;19.44;100.00;96374.88;5031172;28;101993;-64
2023/07/22 06:04:25;;;;;;;4.13;2.77;;;;;;;19.57;100.00;96371.34;5029966;27;102602;-64
2023/07/22 06:06:52;;;;;;;2.80;2.60;;;;;;;18.98;100.00;96369.72;5042349;27;104982;-64
2023/07/22 06:09:20;;;;;;;3.77;2.57;;;;;;;19.13;100.00;96377.44;5047927;27;101988;-64
2023/07/22 06:11:46;;;;;;;3.20;2.80;;;;;;;19.10;100.00;96369.19;5048624;27;105315;-64
2023/07/22 06:14:15;;;;;;;4.03;2.57;;;;;;;19.26;100.00;96381.25;5047690;27;105562;-64
2023/07/22 06:16:41;;;;;;;3.03;2.60;;;;;;;19.19;100.00;96378.94;5050009;27;101894;-64
2023/07/22 06:19:08;;;;;;;2.67;2.40;;;;;;;19.40;100.00;96379.31;5048697;27;103786;-64
2023/07/22 06:21:35;;;;;;;3.97;2.73;;;;;;;19.34;100.00;96378.63;5052862;27;102717;-64
2023/07/22 06:24:02;;;;;;;3.20;2.90;;;;;;;19.15;100.00;96374.47;5048757;27;104913;-64
2023/07/22 06:26:29;;;;;;;5.77;2.70;;;;;;;18.83;100.00;96371.94;5049158;27;102578;-64
2023/07/22 06:28:56;;;;;;;4.40;2.60;;;;;;;18.76;100.00;96379.63;5049857;27;102102;-64
2023/07/22 06:31:30;;;;;;;2.67;2.47;;;;;;;19.36;100.00;96381.00;5049905;27;102816;-64
2023/07/22 06:33:57;;;;;;;3.13;2.50;;;;;;;19.64;100.00;96379.78;5047834;27;103907;-64
2023/07/22 06:36:24;;;;;;;3.83;2.77;;;;;;;19.62;100.00;96376.59;5048251;27;102046;-64
2023/07/22 06:38:51;;;;;;;3.17;2.50;;;;;;;18.86;100.00;96382.13;5047947;27;105324;-64
2023/07/22 06:41:19;;;;;;;5.23;2.67;;;;;;;19.16;100.00;96394.91;5049032;27;102525;-64
2023/07/22 06:43:46;;;;;;;3.20;3.00;;;;;;;19.22;100.00;96399.13;5053334;27;101958;-64
2023/07/22 06:46:13;;;;;;;4.83;2.67;;;;;;;18.73;100.00;96399.91;5049012;27;102738;-64
2023/07/22 06:48:41;;;;;;;3.20;2.90;;;;;;;18.68;100.00;96402.69;5048177;27;101987;-64
2023/07/22 06:51:08;;;;;;;3.93;2.53;;;;;;;18.54;100.00;96404.59;5049570;27;102323;-64
2023/07/22 06:53:35;;;;;;;3.30;2.70;;;;;;;19.24;100.00;96405.03;5048951;27;102496;-64
2023/07/22 06:56:02;;;;;;;2.53;2.30;;;;;;;19.62;100.00;96406.28;5049518;27;101867;-64
2023/07/22 06:58:29;;;;;;;2.73;2.53;;;;;;;19.89;100.00;96406.94;5049607;27;102867;-64
2023/07/22 07:00:56;;;;;;;2.60;2.40;;;;;;;19.96;100.00;96398.41;5047258;27;103902;-64
2023/07/22 07:03:23;;;;;;;4.93;2.57;;;;;;;19.64;100.00;96401.38;5049281;27;101950;-64
2023/07/22 07:05:55;;;;;;;3.07;2.50;;;;;;;19.17;100.00;96404.59;5050490;27;105709;-64
2023/07/22 07:08:21;;;;;;;2.30;2.10;;;;;;;20.03;100.00;96391.47;5049550;27;101772;-64
2023/07/22 07:10:48;;;;;;;2.53;2.27;;;;;;;20.54;100.00;96385.53;5047773;27;105636;-64
2023/07/22 07:13:15;;;;;;;2.40;2.20;;;;;;;20.76;100.00;96388.13;5047236;27;105987;-64
2023/07/22 07:15:43;;;;;;;2.97;1.97;;;;;;;21.08;100.00;96387.75;5047768;27;101878;-64
2023/07/22 07:18:09;;;;;;;3.97;2.10;;;;;;;21.10;100.00;96391.69;5047775;27;105543;-64
2023/07/22 07:20:36;;;;;;;2.40;2.20;;;;;;;21.07;100.00;96391.53;5049565;27;102621;-64
2023/07/22 07:23:05;;;;;;;2.60;2.40;;;;;;;20.73;100.00;96394.16;5052689;27;101874;-64
2023/07/22 07:25:32;;;;;;;2.53;2.33;;;;;;;19.93;100.00;96402.50;5052521;27;102768;-64
2023/07/22 07:27:59;;;;;;;2.70;2.50;;;;;;;20.11;100.00;96400.75;5054041;27;105969;-64
2023/07/22 07:30:25;;;;;;;2.73;2.50;;;;;;;20.13;100.00;96401.22;5052537;27;103044;-64
2023/07/22 07:32:53;;;;;;;4.77;2.33;;;;;;;20.69;100.00;96409.41;5050528;27;105396;-64
2023/07/22 07:35:20;;;;;;;2.57;2.37;;;;;;;20.90;100.00;96407.75;5051019;27;102130;-64
2023/07/22 07:37:46;;;;;;;2.53;2.33;;;;;;;21.16;100.00;96405.88;5052385;27;102534;-64
2023/07/22 07:40:16;;;;;;;2.60;2.40;;;;;;;21.07;100.00;96411.28;5050247;27;105720;-64
2023/07/22 07:42:43;;;;;;;2.30;2.10;;;;;;;21.33;100.00;96414.00;5052202;27;102377;-64
2023/07/22 07:45:10;;;;;;;2.40;2.20;;;;;;;22.06;100.00;96420.03;5050981;27;104109;-64
2023/07/22 07:47:37;;;;;;;3.40;2.30;;;;;;;20.79;100.00;96414.50;5050289;27;105869;-64
2023/07/22 07:50:04;;;;;;;2.97;2.50;;;;;;;20.82;100.00;96422.00;5055805;27;102005;-64
2023/07/22 07:52:31;;;;;;;3.47;2.30;;;;;;;21.42;100.00;96418.31;5051527;27;102633;-64
2023/07/22 07:54:58;;;;;;;2.53;2.33;;;;;;;21.26;100.00;96416.41;5050493;27;101905;-64
2023/07/22 07:57:26;;;;;;;2.70;2.30;;;;;;;20.80;100.00;96427.72;5050739;27;105379;-64
2023/07/22 07:59:53;;;;;;;2.97;2.50;;;;;;;21.30;100.00;96417.38;5050123;27;105342;-64
2023/07/22 08:02:20;;;;;;;2.43;2.23;;;;;;;21.63;100.00;96423.91;5050627;27;102061;-64
2023/07/22 08:04:46;;;;;;;2.40;2.20;;;;;;;21.50;100.00;96424.84;5052026;27;102348;-64
2023/07/22 08:07:16;;;;;;;3.10;2.10;;;;;;;21.19;100.00;96413.38;5069073;27;102635;-64
2023/07/22 08:09:43;;;;;;;2.70;2.10;;;;;;;20.95;100.00;96421.09;5057434;27;101897;-64
2023/07/22 08:12:10;;;;;;;2.83;2.50;;;;;;;21.60;100.00;96419.91;5071724;27;102533;-64
2023/07/22 08:14:39;;;;;;;2.87;2.30;;;;;;;21.10;100.00;96416.03;5072426;27;102037;-64
2023/07/22 08:17:06;;;;;;;2.40;2.20;;;;;;;21.02;100.00;96418.72;5053933;27;105343;-64
2023/07/22 08:19:33;;;;;;;2.43;2.23;;;;;;;21.36;100.00;96416.88;5053210;27;105610;-64
2023/07/22 08:22:00;;;;;;;2.77;2.30;;;;;;;21.18;100.00;96423.38;5072212;27;101939;-64
2023/07/22 08:24:27;;;;;;;2.40;2.13;;;;;;;21.71;100.00;96415.81;5072087;27;101733;-64
2023/07/22 08:26:53;;;;;;;2.90;2.17;;;;;;;22.01;100.00;96414.00;5052933;27;104701;-64
2023/07/22 08:29:20;;;;;;;2.50;2.30;;;;;;;22.03;100.00;96417.97;5072322;27;101971;-64
2023/07/22 08:31:49;;;;;;;2.17;1.97;;;;;;;22.24;100.00;96412.66;5074374;27;102876;-64
2023/07/22 08:34:16;;;;;;;2.13;2.00;;;;;;;21.98;100.00;96412.72;5071982;27;102219;-64
2023/07/22 08:36:43;;;;;;;2.20;2.00;;;;;;;21.85;100.00;96410.22;5072147;27;102426;-64
2023/07/22 08:39:10;;;;;;;2.63;2.10;;;;;;;21.61;100.00;96416.09;5052355;27;105579;-64
2023/07/22 08:41:37;;;;;;;2.40;2.20;;;;;;;21.45;100.00;96416.88;5053441;27;101919;-64
2023/07/22 08:44:06;;;;;;;6.90;2.73;;;;;;;21.21;100.00;96413.84;5071890;27;102393;-64
2023/07/22 08:46:35;;;;;;;2.40;2.20;;;;;;;21.75;100.00;96415.94;5070992;27;102580;-64
2023/07/22 08:49:07;;;;;;;2.70;2.50;;;;;;;22.19;100.00;96418.25;5053525;27;101932;-64
2023/07/22 08:51:37;;;;;;;2.77;2.43;;;;;;;22.01;100.00;96411.31;5053301;27;104105;-64
2023/07/22 08:54:04;;;;;;;4.50;2.43;;;;;;;21.70;100.00;96413.41;5074485;27;102555;-64
2023/07/22 08:56:32;;;;;;;2.30;2.10;;;;;;;21.82;100.00;96406.22;5071704;27;102879;-64
2023/07/22 08:59:00;;;;;;;2.90;2.37;;;;;;;21.82;100.00;96406.22;5071109;27;102569;-64
2023/07/22 09:01:27;;;;;;;3.33;2.13;;;;;;;22.36;100.00;96407.38;5071564;27;101850;-64
2023/07/22 09:03:56;;;;;;;2.47;2.20;;;;;;;22.52;100.00;96411.16;5053062;27;105681;-64
2023/07/22 09:06:25;;;;;;;2.20;2.00;;;;;;;23.13;100.00;96407.81;5051656;27;105852;-64
2023/07/22 09:08:53;;;;;;;2.23;1.90;;;;;;;23.66;100.00;96407.91;5052932;27;101950;-64
2023/07/22 09:11:21;;;;;;;2.50;2.20;;;;;;;23.67;100.00;96401.34;5052993;27;105197;-64
2023/07/22 09:13:49;;;;;;;2.40;2.20;;;;;;;23.74;100.00;96399.69;5070916;27;102882;-64
2023/07/22 09:16:17;;;;;;;2.70;1.97;;;;;;;22.38;98.79;96399.69;5074673;27;101957;-64
2023/07/22 09:18:44;;;;;;;2.40;2.20;;;;;;;22.51;100.00;96404.16;5052087;27;105751;-64
2023/07/22 09:21:10;;;;;;;2.03;1.83;;;;;;;22.57;100.00;96408.28;5071114;27;102278;-64
2023/07/22 09:23:40;;;;;;;2.43;2.03;;;;;;;22.36;100.00;96407.38;5052754;27;104869;-64
2023/07/22 09:26:11;;;;;;;2.67;1.60;;;;;;;22.91;100.00;96399.97;5051926;27;105573;-64
2023/07/22 09:28:54;;;;;;;2.40;1.80;;;;;;;23.14;96.14;96403.97;5052630;27;102025;-64
2023/07/22 09:31:21;;;;;;;2.80;2.03;;;;;;;22.95;100.00;96398.97;5071339;27;102377;-64
2023/07/22 09:33:48;;;;;;;2.90;2.10;;;;;;;23.07;100.00;96398.25;5051966;27;105738;-64
2023/07/22 09:36:15;;;;;;;2.23;2.03;;;;;;;23.23;100.00;96399.31;5070824;27;102117;-64
2023/07/22 09:38:44;;;;;;;1.87;1.77;;;;;;;23.07;87.44;96401.78;5073813;27;102450;-64
2023/07/22 09:41:11;;;;;;;2.63;1.33;;;;;;;22.39;84.86;96395.88;5052458;27;101849;-64
2023/07/22 09:43:39;;;;;;;2.10;1.90;;;;;;;22.11;100.00;96403.63;5051519;27;105696;-64
2023/07/22 09:46:10;;;;;;;2.83;1.80;;;;;;;21.96;95.30;96396.00;5069947;27;102979;-64
2023/07/22 09:48:42;;;;;;;1.97;1.47;;;;;;;22.53;94.78;96399.19;5071024;27;102214;-64
2023/07/22 09:51:14;;;;;;;2.33;1.60;;;;;;;22.04;87.48;96394.38;5052116;27;106126;-64
2023/07/22 09:53:47;;;;;;;1.53;1.43;;;;;;;22.51;84.72;96393.31;5070217;27;102475;-64
2023/07/22 09:56:14;;;;;;;1.70;1.60;;;;;;;23.63;95.73;96389.56;5070860;27;101894;-64
2023/07/22 09:58:42;;;;;;;2.30;1.70;;;;;;;24.20;83.82;96385.03;5052425;27;104169;-64
2023/07/22 10:01:09;;;;;;;3.23;1.73;;;;;;;24.29;72.40;96391.16;5073491;27;102491;-64
2023/07/22 10:03:38;;;;;;;3.47;1.50;;;;;;;23.31;68.47;96393.00;5052261;27;105699;-64
2023/07/22 10:06:07;;;;;;;1.90;1.80;;;;;;;23.19;77.63;96393.75;5050874;27;105567;-64
2023/07/22 10:08:37;;;;;;;2.17;1.67;;;;;;;23.76;76.30;96393.94;5070624;27;102170;-64
2023/07/22 10:11:10;;;;;;;2.63;1.60;;;;;;;24.15;66.57;96385.25;5052232;27;105788;-64
2023/07/22 10:13:37;;;;;;;1.63;1.53;;;;;;;22.73;70.20;96393.06;5051513;27;106230;-64
2023/07/22 10:16:05;;;;;;;1.40;1.30;;;;;;;22.80;83.38;96393.31;5070478;27;102096;-64
2023/07/22 10:18:33;;;;;;;2.50;1.60;;;;;;;22.32;80.54;96395.56;5070420;27;102837;-64
2023/07/22 10:21:00;;;;;;;3.03;1.70;;;;;;;21.93;87.36;96390.44;5073144;27;102507;-64
2023/07/22 10:23:27;;;;;;;2.27;1.80;;;;;;;22.14;81.47;96389.44;5051958;27;105225;-64
2023/07/22 10:25:55;;;;;;;1.63;1.53;;;;;;;23.13;100.00;96386.09;5051258;27;104314;-64
2023/07/22 10:28:23;;;;;;;1.60;1.50;;;;;;;23.12;84.08;96382.59;5051747;27;101877;-64
2023/07/22 10:30:51;;;;;;;1.83;1.70;;;;;;;23.50;85.33;96380.59;5070260;27;102325;-64
2023/07/22 10:33:18;;;;;;;2.03;1.83;;;;;;;23.42;74.43;96377.91;5069595;27;101881;-64
2023/07/22 10:36:03;;;;;;;1.70;1.60;;;;;;;23.59;90.83;96375.09;5051630;27;101849;-64
2023/07/22 10:38:30;;;;;;;1.77;1.50;;;;;;;24.50;79.23;96370.13;5070204;27;102454;-64
2023/07/22 10:40:57;;;;;;;1.70;1.60;;;;;;;24.80;73.91;96364.13;5069489;27;102550;-64
2023/07/22 10:43:28;;;;;;;1.70;1.60;;;;;;;23.33;73.01;96366.34;5055070;27;101961;-64
2023/07/22 10:45:56;;;;;;;1.70;1.60;;;;;;;23.27;82.11;96362.25;5050984;27;103833;-64
2023/07/22 10:48:26;;;;;;;2.00;1.83;;;;;;;23.79;77.78;96356.03;5069958;27;102168;-64
2023/07/22 10:50:55;;;;;;;1.97;1.77;;;;;;;23.65;68.93;96357.44;5070385;27;102375;-64
2023/07/22 10:53:29;;;;;;;2.37;1.63;;;;;;;24.15;69.58;96347.97;5050791;27;105461;-64
2023/07/22 10:56:08;;;;;;;2.00;1.83;;;;;;;24.20;68.41;96350.50;5071535;27;101759;-64
2023/07/22 10:58:57;;;;;;;1.70;1.60;;;;;;;24.36;82.90;96356.06;5055009;27;105681;-64
2023/07/22 11:01:26;;;;;;;1.83;1.73;;;;;;;24.67;66.22;96348.97;5073019;27;102672;-64
2023/07/22 11:04:07;;;;;;;1.77;1.67;;;;;;;23.64;71.10;96355.88;5054803;27;102157;-64
2023/07/22 11:06:35;;;;;;;2.13;1.93;;;;;;;23.49;67.06;96356.47;5075928;27;102911;-64
2023/07/22 11:09:02;;;;;;;1.80;1.70;;;;;;;24.64;63.02;96340.72;5073526;27;102126;-64
2023/07/22 11:11:40;;;;;;;1.80;1.67;;;;;;;25.00;60.81;96352.34;5073392;27;102621;-64
2023/07/22 11:14:16;;;;;;;2.90;1.90;;;;;;;23.58;65.55;96344.41;5072569;27;103203;-64
2023/07/22 11:16:44;;;;;;;1.57;1.47;;;;;;;23.92;65.33;96338.66;5054647;27;101873;-64
2023/07/22 11:19:11;;;;;;;1.73;1.63;;;;;;;24.68;66.80;96333.47;5073117;27;102308;-64
2023/07/22 11:21:38;;;;;;;1.63;1.53;;;;;;;25.10;71.22;96329.28;5054097;27;105858;-64
2023/07/22 11:24:05;;;;;;;1.83;1.57;;;;;;;25.79;63.75;96336.00;5054787;27;102230;-64